Flight Track Log - Related Links

Times and Time Zones

All times are in EDT time to prevent confusion due to time zone crossing. See the SWA1688 flight status page for this flight to view local times or setup timezone preferences in your user account.

Time Position Orientation Groundspeed Altitude Reporting Facility
EDT Latitude Longitude Course Direction KTS MPH feet Rate Location/Type
Mon 09:57:50 PM 28.4000 -81.3000 360° North 165 190 500  Level Orlando TRACON
Mon 09:58:08 PM 28.4000 -81.3000 158° South 153 176 1,600 2,250 Climbing Orlando TRACON
Mon 09:59:58 PM 28.3042 -81.2564 158° South 204 235 5,300 2,012 Climbing Miami Center
Mon 10:00:58 PM 28.3089 -81.1764 86° East 195 224 7,300 2,700 Climbing Miami Center
Mon 10:01:58 PM 28.3197 -81.0872 82° East 241 277 10,700 2,950 Climbing Miami Center
Mon 10:02:58 PM 28.3292 -80.9817 84° East 292 336 13,200 2,400 Climbing Miami Center
Mon 10:03:58 PM 28.3361 -80.8781 86° East 348 400 15,500 2,550 Climbing Miami Center
Mon 10:04:58 PM 28.3439 -80.7558 86° East 374 430 18,300 2,800 Climbing Miami Center
Mon 10:05:58 PM 28.3533 -80.6264 85° East 387 445 21,100 2,350 Climbing Miami Center
Mon 10:06:58 PM 28.3650 -80.5017 84° East 401 461 23,000 1,800 Climbing Miami Center
Mon 10:07:58 PM 28.3750 -80.3581 85° East 406 467 24,700 1,750 Climbing Miami Center
Mon 10:08:58 PM 28.3864 -80.2264 84° East 411 473 26,500 1,150 Climbing Miami Center
Mon 10:09:58 PM 28.3958 -80.0850 86° East 423 487 27,000 650 Climbing Miami Center
Mon 10:10:58 PM 28.4028 -79.9603 86° East 438 504 27,800 1,200 Climbing Miami Center
Mon 10:11:58 PM 28.4142 -79.8164 85° East 443 510 29,400 1,500 Climbing Miami Center
Mon 10:12:58 PM 28.4378 -79.6756 79° East 448 516 30,800 1,600 Climbing Miami Center
Mon 10:13:58 PM 28.5522 -79.5981 31° Northeast 417 480 32,600 1,750 Climbing Miami Center
Mon 10:14:58 PM 28.6661 -79.5344 26° Northeast 423 487 34,300 1,200 Climbing Miami Center
Mon 10:15:58 PM 28.7819 -79.4711 26° Northeast 442 509 35,000 350 Climbing Miami Center
Mon 10:16:58 PM 28.8978 -79.4050 27° Northeast 453 521 35,000  Level Miami Center
Mon 10:17:58 PM 29.0117 -79.3436 25° Northeast 453 521 35,000 550 Level Miami Center
Mon 10:18:58 PM 29.1233 -79.2747 28° Northeast 453 521 36,100 1,300 Climbing Miami Center
Mon 10:19:58 PM 29.2369 -79.2131 25° Northeast 448 516 37,600 1,300 Climbing Miami Center
Mon 10:20:58 PM 29.3486 -79.1511 26° Northeast 448 516 38,700 700 Climbing Miami Center
Mon 10:21:58 PM 29.4622 -79.0892 25° Northeast 443 510 39,000 150 Climbing Miami Center
Mon 10:22:58 PM 29.5739 -79.0200 28° Northeast 449 517 39,000  Level Miami Center
Mon 10:24:55 PM 29.7986 -78.8814 28° Northeast 448 516 39,000  Level Jacksonville Center
Mon 10:25:55 PM 29.9114 -78.8192 26° Northeast 453 521 39,000  Level Jacksonville Center
Mon 10:26:55 PM 30.0356 -78.7925 11° North 453 521 39,000  Level Jacksonville Center
Mon 10:27:55 PM 30.1689 -78.7772 North 453 521 39,000  Level Jacksonville Center
Mon 10:28:55 PM 30.2847 -78.7483 12° North 442 509 39,000  Level Jacksonville Center
Mon 10:29:55 PM 30.4092 -78.7236 10° North 442 509 39,000  Level Jacksonville Center
Mon 10:30:56 PM 30.5336 -78.6989 10° North 449 517 39,000  Level Jacksonville Center
Mon 10:31:56 PM 30.6539 -78.6742 10° North 444 511 39,000  Level Jacksonville Center
Mon 10:32:56 PM 30.7739 -78.6472 11° North 444 511 39,000  Level Jacksonville Center
Mon 10:33:55 PM 30.8964 -78.6222 10° North 444 511 39,000  Level Jacksonville Center
Mon 10:34:55 PM 31.0161 -78.5853 15° North 444 511 39,000  Level Jacksonville Center
Mon 10:35:56 PM 31.1356 -78.5386 18° North 444 511 39,000  Level Jacksonville Center
Mon 10:36:55 PM 31.2531 -78.4942 18° North 444 511 39,000  Level Jacksonville Center
Mon 10:37:55 PM 31.3706 -78.4500 18° North 438 504 39,000  Level Jacksonville Center
Mon 10:38:56 PM 31.4881 -78.4053 18° North 438 504 39,000  Level Jacksonville Center
Mon 10:39:55 PM 31.6075 -78.3606 18° North 438 504 39,000  Level Jacksonville Center
Mon 10:40:55 PM 31.7308 -78.3106 19° North 444 511 39,000  Level Jacksonville Center
Mon 10:41:56 PM 31.8442 -78.2681 18° North 444 511 39,000  Level Jacksonville Center
Mon 10:42:56 PM 31.9775 -78.2075 21° North 444 511 39,000  Level Jacksonville Center
Mon 10:43:55 PM 32.0969 -78.1647 17° North 444 511 39,000  Level Jacksonville Center
Mon 10:44:55 PM 32.2183 -78.1167 19° North 439 505 39,000  Level Jacksonville Center
Mon 10:45:56 PM 32.3378 -78.0686 19° North 439 505 39,000  Level Jacksonville Center
Mon 10:46:56 PM 32.4486 -78.0236 19° North 448 516 39,000  Level Jacksonville Center
Mon 10:47:55 PM 32.5658 -77.9778 18° North 448 516 39,000  Level Jacksonville Center
Mon 10:48:55 PM 32.6850 -77.9317 18° North 448 516 39,000  Level Jacksonville Center
Mon 10:49:55 PM 32.8022 -77.8883 17° North 448 516 39,000  Level Jacksonville Center
Mon 10:50:56 PM 32.9172 -77.8397 20° North 443 510 39,000  Level Jacksonville Center
Mon 10:52:32 PM 33.1028 -77.7656 19° North 467 537 39,000  Level Washington Center
Mon 10:53:32 PM 33.2225 -77.7189 18° North 456 525 39,000  Level Washington Center
Mon 10:54:32 PM 33.3381 -77.6694 20° North 443 510 39,000  Level Washington Center
Mon 10:55:32 PM 33.4558 -77.6228 18° North 443 510 39,000  Level Washington Center
Mon 10:56:32 PM 33.5733 -77.5758 18° North 443 510 39,000  Level Washington Center
Mon 10:57:33 PM 33.6889 -77.5261 20° North 443 510 39,000  Level Washington Center
Mon 10:58:31 PM 33.8064 -77.4789 18° North 443 510 39,000  Level Washington Center
Mon 10:59:32 PM 33.9219 -77.4339 18° North 443 510 39,000  Level Washington Center
Mon 11:00:32 PM 34.0394 -77.3839 19° North 443 510 39,000  Level Washington Center
Mon 11:01:33 PM 34.1550 -77.3386 18° North 443 510 39,000  Level Washington Center
Mon 11:02:33 PM 34.2725 -77.2883 19° North 438 504 39,000  Level Washington Center
Mon 11:03:34 PM 34.3878 -77.2431 18° North 438 504 39,000  Level Washington Center
Mon 11:04:34 PM 34.5033 -77.1950 19° North 438 504 39,000  Level Washington Center
Mon 11:05:32 PM 34.6186 -77.1467 19° North 438 504 39,000  Level Washington Center
Mon 11:06:34 PM 34.7361 -77.0958 20° North 438 504 39,000  Level Washington Center
Mon 11:07:32 PM 34.8536 -77.0500 18° North 438 504 39,000  Level Washington Center
Mon 11:08:32 PM 34.9689 -77.0014 19° North 438 504 39,000  Level Washington Center
Mon 11:09:33 PM 35.0822 -76.9525 19° North 438 504 39,000  Level Washington Center
Mon 11:10:33 PM 35.1975 -76.9011 20° North 432 497 39,000  Level Washington Center
Mon 11:11:33 PM 35.3128 -76.8519 19° North 426 490 39,000  Level Washington Center
Mon 11:12:34 PM 35.4281 -76.8028 19° North 431 496 39,000  Level Washington Center
Mon 11:13:32 PM 35.5392 -76.7561 19° North 425 489 39,000  Level Washington Center
Mon 11:14:33 PM 35.6542 -76.7039 20° North 430 495 39,000  Level Washington Center
Mon 11:15:32 PM 35.7717 -76.6569 18° North 430 495 39,000  Level Washington Center
Mon 11:16:33 PM 35.8889 -76.6047 20° North 430 495 39,000  Level Washington Center
Mon 11:17:34 PM 36.0061 -76.5550 19° North 435 501 39,000  Level Washington Center
Mon 11:18:34 PM 36.1233 -76.5047 19° North 435 501 39,000  Level Washington Center
Mon 11:19:32 PM 36.2406 -76.4547 19° North 440 506 39,000  Level Washington Center
Mon 11:20:33 PM 36.3556 -76.4044 19° North 440 506 39,000  Level Washington Center
Mon 11:21:32 PM 36.4728 -76.3539 19° North 440 506 39,000  Level Washington Center
Mon 11:22:32 PM 36.5878 -76.3058 19° North 440 506 39,000  Level Washington Center
Mon 11:23:33 PM 36.7008 -76.2578 19° North 435 501 39,000  Level Washington Center
Mon 11:24:31 PM 36.8139 -76.2017 22° Northeast 435 501 39,000  Level Washington Center
Mon 11:25:32 PM 36.9286 -76.1506 20° North 430 495 39,000  Level Washington Center
Mon 11:26:32 PM 37.0603 -76.0994 17° North 446 513 39,000  Level Washington Center
Mon 11:27:32 PM 37.1711 -76.0481 20° North 435 501 39,000  Level Washington Center
Mon 11:28:32 PM 37.2881 -75.9964 19° North 429 494 39,000  Level Washington Center
Mon 11:29:34 PM 37.4050 -75.9447 19° North 429 494 39,000  Level Washington Center
Mon 11:30:34 PM 37.5200 -75.8931 20° North 429 494 39,000  Level Washington Center
Mon 11:31:32 PM 37.6389 -75.8383 20° North 435 501 39,000  Level Washington Center
Mon 11:32:32 PM 37.7539 -75.7861 20° North 435 501 39,000  Level Washington Center
Mon 11:33:33 PM 37.8706 -75.7339 19° North 435 501 39,000  Level Washington Center
Mon 11:34:31 PM 37.9856 -75.6814 20° North 435 501 39,000  Level Washington Center
Mon 11:35:31 PM 38.0981 -75.6233 22° Northeast 435 501 39,000  Level Washington Center
Mon 11:36:32 PM 38.2128 -75.5681 21° North 435 501 39,000  Level Washington Center
Mon 11:37:33 PM 38.3192 -75.5231 18° North 435 501 39,000  Level Washington Center
Mon 11:38:33 PM 38.4317 -75.4750 18° North 435 501 39,000  Level Washington Center
Mon 11:39:33 PM 38.5461 -75.4272 18° North 435 501 39,000  Level Washington Center
Mon 11:40:32 PM 38.6628 -75.3817 17° North 430 495 39,000  Level Washington Center
Mon 11:41:32 PM 38.7794 -75.3361 17° North 430 495 39,000  Level Washington Center
Mon 11:42:33 PM 38.8942 -75.2850 19° North 430 495 39,000  Level Washington Center
Mon 11:43:34 PM 39.0108 -75.2364 18° North 435 501 39,000  Level Washington Center
Mon 11:44:32 PM 39.1272 -75.1875 18° North 440 506 39,000  Level Washington Center
Mon 11:45:34 PM 39.2439 -75.1361 19° North 440 506 39,000  Level Washington Center
Mon 11:47:16 PM 39.4317 -74.9856 32° Northeast 439 505 39,000  Level New York Center
Mon 11:48:16 PM 39.5311 -74.8836 38° Northeast 444 511 39,000  Level New York Center
Mon 11:49:14 PM 39.6258 -74.8003 34° Northeast 449 517 39,000  Level New York Center
Mon 11:50:15 PM 39.7228 -74.7006 38° Northeast 443 510 39,000  Level New York Center
Mon 11:51:16 PM 39.8242 -74.6036 36° Northeast 438 504 39,000  Level New York Center
Mon 11:52:16 PM 39.9275 -74.5011 37° Northeast 448 516 39,000  Level New York Center
Mon 11:53:15 PM 40.0378 -74.4392 23° Northeast 448 516 39,000 -50 Level New York Center
Mon 11:54:17 PM 40.1658 -74.4106 10° North 437 503 38,900 -545 Descending New York Center
Mon 11:55:16 PM 40.2917 -74.3819 10° North 449 517 37,900 -1,008 Descending New York Center
Mon 11:56:16 PM 40.4156 -74.3528 10° North 449 517 36,900 -950 Descending New York Center
Mon 11:57:16 PM 40.5414 -74.3239 10° North 449 517 36,000 -959 Descending New York Center
Mon 11:59:30 PM 40.8225 -74.2639 North 462 532 33,800 -1,021 Descending Boston Center
Tue 12:00:30 AM 40.9397 -74.2369 10° North 455 524 32,700 -1,550 Descending Boston Center
Tue 12:01:30 AM 41.0547 -74.2100 10° North 431 496 30,700 -1,950 Descending Boston Center
Tue 12:02:30 AM 41.1656 -74.1856 North 411 473 28,800 -1,950 Descending Boston Center
Tue 12:03:30 AM 41.2808 -74.1528 12° North 397 457 26,800 -1,900 Descending Boston Center
Tue 12:04:30 AM 41.3833 -74.1278 10° North 382 440 25,000 -1,400 Descending Boston Center
Tue 12:05:30 AM 41.4817 -74.1056 10° North 370 426 24,000 -500 Descending Boston Center
Tue 12:06:30 AM 41.5756 -74.0856 North 370 426 24,000 -200 Level Boston Center
Tue 12:07:30 AM 41.6781 -74.0606 10° North 370 426 23,600 -1,750 Descending Boston Center
Tue 12:08:30 AM 41.7847 -74.0356 10° North 370 426 20,500 -3,325 Descending Boston Center
Tue 12:08:53 AM 41.8308 -74.0283 North 388 447 19,000 -3,559 Descending Boston Center
Tue 12:09:29 AM 41.8872 -74.0100 14° North 375 432 17,000 -4,091 Descending Boston Center
Tue 12:09:59 AM 41.9583 -73.9978 North 405 466 14,500 -3,900 Descending Boston Center
Tue 12:10:29 AM 42.0064 -73.9822 14° North 384 442 13,100 -2,852 Descending Boston Center
Tue 12:11:00 AM 42.0650 -73.9697 North 402 463 11,600 -2,100 Descending Boston Center
Tue 12:11:29 AM 42.1069 -73.9567 13° North 390 449 11,000 -600 Descending Boston Center
Tue 12:12:00 AM 42.1633 -73.9414 11° North 348 400 11,000  Level Boston Center
Tue 12:12:29 AM 42.2053 -73.9283 13° North 349 402 11,000 -197 Level Boston Center
Tue 12:13:01 AM 42.2428 -73.9208 North 266 306 10,800 -1,500 Descending Boston Center
Tue 12:13:29 AM 42.2719 -73.9103 15° North 294 338 9,500 -2,557 Descending Boston Center
Tue 12:14:02 AM 42.3222 -73.9003 North 283 326 8,200 -2,200 Descending Boston Center
Tue 12:14:29 AM 42.3578 -73.8869 15° North 278 320 7,300 -2,000 Descending Boston Center
Tue 12:15:02 AM 42.3997 -73.8739 13° North 288 331 6,200 -1,800 Descending Boston Center
Tue 12:15:29 AM 42.4269 -73.8661 12° North 278 320 5,500 -1,967 Descending Boston Center
Tue 12:16:03 AM 42.4750 -73.8589 North 276 318 4,200 -2,164 Descending Boston Center
Tue 12:16:30 AM 42.5083 -73.8428 20° North 278 320 3,300 -1,574 Descending Boston Center
Tue 12:17:04 AM 42.5544 -73.8325 North 271 312 2,600 -814 Descending Boston Center
Tue 12:17:29 AM 42.5733 -73.8244 17° North 278 320 2,500 -100 Descending Boston Center
Tue 12:18:04 AM 42.6150 -73.8169 North 222 255 2,500 -197 Level Boston Center
Tue 12:18:30 AM 42.6339 -73.8117 12° North 248 285 2,300 -787 Descending Boston Center
Tue 12:19:05 AM 42.6653 -73.8039 10° North 161 185 1,700 -884 Descending Boston Center
Tue 12:20:05 AM 42.7069 -73.8047 359° North 147 169 900 -800 Descending Boston Center

Login

Don't have an account? Register now (free) for customized features, flight alerts, and more!